地図

経路データ

SID SEASON NUMBER BASIN SUBBASIN NAME ISO_TIME NATURE LAT LON WMO_WIND WMO_PRES WMO_AGENCY TRACK_TYPE DIST2LAND LANDFALL IFLAG USA_AGENCY USA_ATCF_ID USA_LAT USA_LON USA_RECORD USA_STATUS USA_WIND USA_PRES USA_SSHS USA_R34_NE USA_R34_SE USA_R34_SW USA_R34_NW USA_R50_NE USA_R50_SE USA_R50_SW USA_R50_NW USA_R64_NE USA_R64_SE USA_R64_SW USA_R64_NW USA_POCI USA_ROCI USA_RMW USA_EYE TOKYO_LAT TOKYO_LON TOKYO_GRADE TOKYO_WIND TOKYO_PRES TOKYO_R50_DIR TOKYO_R50_LONG TOKYO_R50_SHORT TOKYO_R30_DIR TOKYO_R30_LONG TOKYO_R30_SHORT TOKYO_LAND CMA_LAT CMA_LON CMA_CAT CMA_WIND CMA_PRES HKO_LAT HKO_LON HKO_CAT HKO_WIND HKO_PRES NEWDELHI_LAT NEWDELHI_LON NEWDELHI_GRADE NEWDELHI_WIND NEWDELHI_PRES NEWDELHI_CI NEWDELHI_DP NEWDELHI_POCI REUNION_LAT REUNION_LON REUNION_TYPE REUNION_WIND REUNION_PRES REUNION_TNUM REUNION_CI REUNION_RMW REUNION_R34_NE REUNION_R34_SE REUNION_R34_SW REUNION_R34_NW REUNION_R50_NE REUNION_R50_SE REUNION_R50_SW REUNION_R50_NW REUNION_R64_NE REUNION_R64_SE REUNION_R64_SW REUNION_R64_NW BOM_LAT BOM_LON BOM_TYPE BOM_WIND BOM_PRES BOM_TNUM BOM_CI BOM_RMW BOM_R34_NE BOM_R34_SE BOM_R34_SW BOM_R34_NW BOM_R50_NE BOM_R50_SE BOM_R50_SW BOM_R50_NW BOM_R64_NE BOM_R64_SE BOM_R64_SW BOM_R64_NW BOM_ROCI BOM_POCI BOM_EYE BOM_POS_METHOD BOM_PRES_METHOD NADI_LAT NADI_LON NADI_CAT NADI_WIND NADI_PRES WELLINGTON_LAT WELLINGTON_LON WELLINGTON_WIND WELLINGTON_PRES DS824_LAT DS824_LON DS824_STAGE DS824_WIND DS824_PRES TD9636_LAT TD9636_LON TD9636_STAGE TD9636_WIND TD9636_PRES TD9635_LAT TD9635_LON TD9635_WIND TD9635_PRES TD9635_ROCI NEUMANN_LAT NEUMANN_LON NEUMANN_CLASS NEUMANN_WIND NEUMANN_PRES MLC_LAT MLC_LON MLC_CLASS MLC_WIND MLC_PRES USA_GUST BOM_GUST BOM_GUST_PER REUNION_GUST REUNION_GUST_PER USA_SEAHGT USA_SEARAD_NE USA_SEARAD_SE USA_SEARAD_SW USA_SEARAD_NW STORM_SPEED STORM_DIR
1935024S18051 1935 3 SI MM NOT_NAMED 1935-01-24 06:00:00 NR -17.6000 50.9000 reunion main 147 147 _____O________ -1 -17.6000 50.9000 99 9.90000 1 0
1935024S18051 1935 3 SI MM NOT_NAMED 1935-01-24 09:00:00 NR -17.6595 50.9100 main 148 148 _____P________ -1 -17.6595 50.9100 99 1 0
1935024S18051 1935 3 SI MM NOT_NAMED 1935-01-24 12:00:00 NR -17.7204 50.9202 main 148 148 _____P________ -1 -17.7204 50.9202 99 1 176
1935024S18051 1935 3 SI MM NOT_NAMED 1935-01-24 15:00:00 NR -17.7843 50.9309 main 148 148 _____P________ -1 -17.7843 50.9309 99 1 0
1935024S18051 1935 3 SI MM NOT_NAMED 1935-01-24 18:00:00 NR -17.8526 50.9423 main 149 149 _____P________ -1 -17.8526 50.9423 99 1 178
1935024S18051 1935 3 SI MM NOT_NAMED 1935-01-24 21:00:00 NR -17.9269 50.9546 main 160 149 _____P________ -1 -17.9269 50.9546 99 1 228
1935024S18051 1935 3 SI MM NOT_NAMED 1935-01-25 00:00:00 TS -17.9268 50.8546 main 149 139 _____P___O____ -1 -18.0085 50.9682 99 -17.6000 50.4000 TC 35 1 261
1935024S18051 1935 3 SI MM NOT_NAMED 1935-01-25 03:00:00 TS -17.9494 50.8013 main 139 129 _____P___P____ -1 -18.0991 50.9833 99 -17.6500 50.4375 TC 35 1 265
1935024S18051 1935 3 SI MM NOT_NAMED 1935-01-25 06:00:00 TS -17.9375 50.7375 reunion main 129 129 _____O___OO___ -1 -18.2000 51.0000 99 9.90000 -17.7000 50.5000 TC 35 -17.6000 50.4000 2 1 264
1935024S18051 1935 3 SI MM NOT_NAMED 1935-01-25 09:00:00 TS -17.9555 50.7441 main 131 131 _____P___PP___ -1 -18.3123 51.0190 99 -17.7500 50.6000 TC 35 -17.6532 50.4827 2 1 148
1935024S18051 1935 3 SI MM NOT_NAMED 1935-01-25 12:00:00 TS -18.0050 50.7869 main 141 141 _____P___OP___ -1 -18.4348 51.0423 99 -17.8000 50.7000 TC 35 -17.7051 50.5624 2 1 144
1935024S18051 1935 3 SI MM NOT_NAMED 1935-01-25 15:00:00 TS -18.0568 50.8193 main 144 144 _____P___PP___ -1 -18.5661 51.0720 99 -17.8500 50.7500 TC 35 -17.7544 50.6359 2 2 148
1935024S18051 1935 3 SI MM NOT_NAMED 1935-01-25 18:00:00 TS -18.1349 50.8702 main 154 154 _____P___OO___ -1 -18.7047 51.1107 99 -17.9000 50.8000 TC 35 -17.8000 50.7000 2 2 146
1935024S18051 1935 3 SI MM NOT_NAMED 1935-01-25 21:00:00 TS -18.2110 50.9309 main 158 158 _____P___PP___ -1 -18.8489 51.1604 99 -17.9425 50.8775 TC 35 -17.8418 50.7548 2 2 139
1935024S18051 1935 3 SI MM NOT_NAMED 1935-01-26 00:00:00 TS -18.2940 51.0121 main 169 169 _____P___OP___ -1 -18.9972 51.2237 99 -18.0000 51.0000 TC 35 -17.8848 50.8127 2 3 134
1935024S18051 1935 3 SI MM NOT_NAMED 1935-01-26 03:00:00 TS -18.3920 51.1257 main 180 180 _____P___PP___ -1 -19.1481 51.3028 99 -18.0925 51.1850 TC 35 -17.9355 50.8892 2 3 131
1935024S18051 1935 3 SI MM NOT_NAMED 1935-01-26 06:00:00 TS -18.5000 51.2667 reunion main 203 203 _____O___OO___ -1 -19.3000 51.4000 99 9.90000 -18.2000 51.4000 TC 35 -18.0000 51.0000 2 4 127
1935024S18051 1935 3 SI MM NOT_NAMED 1935-01-26 09:00:00 TS -18.6096 51.4283 main 215 215 _____P___PP___ -1 -19.4472 51.5054 99 -18.3000 51.6075 TC 35 -18.0817 51.1721 2 4 125
1935024S18051 1935 3 SI MM NOT_NAMED 1935-01-26 12:00:00 TS -18.7248 51.6018 main 238 238 _____P___OP___ -1 -19.5966 51.6280 99 -18.4000 51.8000 TC 35 -18.1777 51.3774 2 4 125
1935024S18051 1935 3 SI MM NOT_NAMED 1935-01-26 15:00:00 TS -18.8416 51.7729 main 261 261 _____P___PP___ -1 -19.7477 51.7673 99 -18.4925 51.9576 TC 35 -18.2848 51.5940 2 4 127
1935024S18051 1935 3 SI MM NOT_NAMED 1935-01-26 18:00:00 TS -18.9665 51.9410 main 278 278 _____P___OO___ -1 -19.8995 51.9229 99 -18.6000 52.1000 TC 35 -18.4000 51.8000 2 4 130
1935024S18051 1935 3 SI MM NOT_NAMED 1935-01-26 21:00:00 TS -19.0906 52.0837 main 301 301 _____P___PP___ -1 -20.0514 52.0944 99 -18.7274 52.2202 TC 35 -18.4931 51.9364 2 4 133
1935024S18051 1935 3 SI MM NOT_NAMED 1935-01-27 00:00:00 TS -19.2332 52.2482 main 315 315 _____P___OP___ -1 -20.2027 52.2813 99 -18.9000 52.4000 TC 35 -18.5970 52.0633 2 5 130
1935024S18051 1935 3 SI MM NOT_NAMED 1935-01-27 03:00:00 TS -19.4025 52.4731 main 339 309 _____P___PP___ -1 -20.3524 52.4833 99 -19.1276 52.7274 TC 35 -18.7274 52.2085 2 6 129
1935024S18051 1935 3 SI MM NOT_NAMED 1935-01-27 06:00:00 TS -19.6000 52.7333 reunion main 309 271 _____O___OO___ -1 -20.5000 52.7000 99 9.90000 -19.4000 53.1000 TC 35 -18.9000 52.4000 2 7 130
1935024S18051 1935 3 SI MM NOT_NAMED 1935-01-27 09:00:00 TS -19.8268 53.0084 main 271 227 _____P___PP___ -1 -20.6441 52.9197 99 -19.6999 53.4150 TC 35 -19.1363 52.6904 2 7 131
1935024S18051 1935 3 SI MM NOT_NAMED 1935-01-27 12:00:00 TS -20.0664 53.2941 main 227 188 _____P___OP___ -1 -20.7862 53.1556 99 -20.0000 53.7000 TC 35 -19.4130 53.0267 2 7 131
1935024S18051 1935 3 SI MM NOT_NAMED 1935-01-27 15:00:00 TS -20.2974 53.5818 main 188 160 _____P___PP___ -1 -20.9265 53.4056 99 -20.2575 53.9651 TC 35 -19.7082 53.3748 2 7 131
1935024S18051 1935 3 SI MM NOT_NAMED 1935-01-27 18:00:00 TS -20.5216 53.8560 main 150 122 _____P___OO___ -1 -21.0649 53.6679 99 -20.5000 54.2000 TC 35 -20.0000 53.7000 2 6 133
1935024S18051 1935 3 SI MM NOT_NAMED 1935-01-27 21:00:00 TS -20.7229 54.0686 main 122 96 _____P___PP___ -1 -21.2014 53.9405 99 -20.7272 54.3630 TC 35 -20.2400 53.9024 2 6 135
1935024S18051 1935 3 SI MM NOT_NAMED 1935-01-28 00:00:00 TS -20.9373 54.3020 main 96 63 _____P___OP___ -1 -21.3360 54.2213 99 -21.0000 54.6000 TC 35 -20.4760 54.0848 2 7 133
1935024S18051 1935 3 SI MM NOT_NAMED 1935-01-28 03:00:00 TS -21.1952 54.6160 main 63 33 _____P___PP___ -1 -21.4689 54.5085 99 -21.3925 55.0397 TC 35 -20.7241 54.2996 2 8 129
1935024S18051 1935 3 SI MM NOT_NAMED 1935-01-28 06:00:00 TS -21.4667 55.0000 reunion main 38 30 _____O___OO___ -1 -21.6000 54.8000 99 9.90000 -21.8000 55.6000 TC 35 -21.0000 54.6000 2 9 125
1935024S18051 1935 3 SI MM NOT_NAMED 1935-01-28 09:00:00 TS -21.7341 55.4472 main 39 35 _____P___PP___ -1 -21.7336 55.0976 99 -22.1225 56.1927 TC 35 -21.3461 55.0514 2 10 121
1935024S18051 1935 3 SI MM NOT_NAMED 1935-01-28 12:00:00 TS -21.9937 55.9321 main 73 73 _____P___OP___ -1 -21.8656 55.4028 99 -22.4000 56.8000 TC 35 -21.7157 55.5934 2 10 120
1935024S18051 1935 3 SI MM NOT_NAMED 1935-01-28 15:00:00 TS -22.2483 56.4171 main 118 118 _____P___PP___ -1 -21.9955 55.7123 99 -22.6721 57.3502 TC 35 -22.0772 56.1890 2 9 118
1935024S18051 1935 3 SI MM NOT_NAMED 1935-01-28 18:00:00 TS -22.4356 56.8172 main 160 160 _____P___OO___ -1 -22.1230 56.0224 99 -22.9000 57.9000 TC 35 -22.4000 56.8000 2 8 115
1935024S18051 1935 3 SI MM NOT_NAMED 1935-01-28 21:00:00 TS -22.5772 57.1875 main 204 204 _____P___PP___ -1 -22.2475 56.3298 99 -23.0681 58.4873 TC 35 -22.6615 57.3952 2 6 111
1935024S18051 1935 3 SI MM NOT_NAMED 1935-01-29 00:00:00 TS -22.6609 57.4428 main 227 227 _____P___OP___ -1 -22.3688 56.6309 99 -23.2000 59.1000 TC 35 -22.8707 57.9729 2 3 111
1935024S18051 1935 3 SI MM NOT_NAMED 1935-01-29 03:00:00 NR -22.6725 57.4611 main 234 234 _____P____P___ -1 -22.4864 56.9221 99 TC -23.0447 58.5391 2 1 116
1935024S18051 1935 3 SI MM NOT_NAMED 1935-01-29 06:00:00 NR -22.7200 57.5800 reunion main 242 227 _____O____O___ -1 -22.6000 57.2000 99 9.90000 -23.2000 59.1000 2 0 220
1935024S18051 1935 3 SI MM NOT_NAMED 1935-01-29 09:00:00 NR -22.7027 57.4442 main 227 227 _____P________ -1 -22.7027 57.4442 99 2 1 133
1935024S18051 1935 3 SI MM NOT_NAMED 1935-01-29 12:00:00 NR -22.8007 57.6743 main 257 257 _____P________ -1 -22.8007 57.6743 99 2 5 115
1935024S18051 1935 3 SI MM NOT_NAMED 1935-01-29 15:00:00 NR -22.8959 57.8947 main 269 269 _____P________ -1 -22.8959 57.8947 99 2 4 115
1935024S18051 1935 3 SI MM NOT_NAMED 1935-01-29 18:00:00 NR -22.9905 58.1096 main 282 282 _____P________ -1 -22.9905 58.1096 99 4 116
1935024S18051 1935 3 SI MM NOT_NAMED 1935-01-29 21:00:00 NR -23.0862 58.3233 main 297 297 _____P________ -1 -23.0862 58.3233 99 4 116
1935024S18051 1935 3 SI MM NOT_NAMED 1935-01-30 00:00:00 NR -23.1851 58.5400 main 312 312 _____P________ -1 -23.1851 58.5400 99 5 117
1935024S18051 1935 3 SI MM NOT_NAMED 1935-01-30 03:00:00 NR -23.2891 58.7641 main 332 332 _____P________ -1 -23.2891 58.7641 99 5 117
1935024S18051 1935 3 SI MM NOT_NAMED 1935-01-30 06:00:00 NR -23.4000 59.0000 reunion main 350 350 _____O________ -1 -23.4000 59.0000 99 9.90000 5 117
1935024S18051 1935 3 SI MM NOT_NAMED 1935-01-30 09:00:00 NR -23.5193 59.2509 main 373 373 _____P________ -1 -23.5193 59.2509 99 5 117
1935024S18051 1935 3 SI MM NOT_NAMED 1935-01-30 12:00:00 NR -23.6461 59.5161 main 393 393 _____P________ -1 -23.6461 59.5161 99 6 118
1935024S18051 1935 3 SI MM NOT_NAMED 1935-01-30 15:00:00 NR -23.7794 59.7937 main 427 427 _____P________ -1 -23.7794 59.7937 99 6 118
1935024S18051 1935 3 SI MM NOT_NAMED 1935-01-30 18:00:00 NR -23.9179 60.0817 main 453 453 _____P________ -1 -23.9179 60.0817 99 6 118
1935024S18051 1935 3 SI MM NOT_NAMED 1935-01-30 21:00:00 NR -24.0604 60.3783 main 488 488 _____P________ -1 -24.0604 60.3783 99 6 118
1935024S18051 1935 3 SI MM NOT_NAMED 1935-01-31 00:00:00 NR -24.2057 60.6816 main 515 515 _____P________ -1 -24.2057 60.6816 99 6 118
1935024S18051 1935 3 SI MM NOT_NAMED 1935-01-31 03:00:00 NR -24.3526 60.9894 main 552 552 _____P________ -1 -24.3526 60.9894 99 6 118
1935024S18051 1935 3 SI MM NOT_NAMED 1935-01-31 06:00:00 NR -24.5000 61.3000 reunion main 580 _____O________ -1 -24.5000 61.3000 99 9.90000 6 118

IBTrACS Databaseについて

本データベースは、米国NOAAが公開する1842年以降の世界の熱帯低気圧のベストトラックデータアーカイブInternational Best Track Archive for Climate Stewardship (IBTrACS)を、ウェブで閲覧しやすい形式に変換したものです。

最終更新日:2021-10-08